sensor_id;sensor_type;location;lat;lon;timestamp;pressure;altitude;pressure_sealevel;temperature;humidity
6506;BME280;3286;49.858;8.768;2023-06-26T00:00:06;99078.66;;;22.78;42.88
6506;BME280;3286;49.858;8.768;2023-06-26T00:02:33;99078.81;;;22.71;43.27
6506;BME280;3286;49.858;8.768;2023-06-26T00:04:59;99081.25;;;22.49;44.00
6506;BME280;3286;49.858;8.768;2023-06-26T00:07:28;99083.81;;;22.13;44.62
6506;BME280;3286;49.858;8.768;2023-06-26T00:09:55;99082.28;;;22.60;43.32
6506;BME280;3286;49.858;8.768;2023-06-26T00:12:21;99080.13;;;22.38;43.70
6506;BME280;3286;49.858;8.768;2023-06-26T00:14:49;99074.69;;;22.14;43.94
6506;BME280;3286;49.858;8.768;2023-06-26T00:17:16;99080.22;;;21.89;44.29
6506;BME280;3286;49.858;8.768;2023-06-26T00:19:43;99078.25;;;21.96;44.11
6506;BME280;3286;49.858;8.768;2023-06-26T00:22:09;99076.97;;;21.98;44.25
6506;BME280;3286;49.858;8.768;2023-06-26T00:24:36;99074.50;;;21.97;44.46
6506;BME280;3286;49.858;8.768;2023-06-26T00:27:03;99072.66;;;21.97;44.70
6506;BME280;3286;49.858;8.768;2023-06-26T00:29:30;99073.59;;;21.73;45.09
6506;BME280;3286;49.858;8.768;2023-06-26T00:31:58;99078.50;;;21.76;45.30
6506;BME280;3286;49.858;8.768;2023-06-26T00:34:24;99075.47;;;21.72;45.40
6506;BME280;3286;49.858;8.768;2023-06-26T00:36:51;99072.22;;;21.82;44.42
6506;BME280;3286;49.858;8.768;2023-06-26T00:39:18;99074.38;;;21.92;44.31
6506;BME280;3286;49.858;8.768;2023-06-26T00:41:44;99071.09;;;21.90;44.88
6506;BME280;3286;49.858;8.768;2023-06-26T00:44:11;99078.28;;;21.77;45.07
6506;BME280;3286;49.858;8.768;2023-06-26T00:46:37;99066.84;;;21.63;45.40
6506;BME280;3286;49.858;8.768;2023-06-26T00:49:05;99071.59;;;21.68;45.15
6506;BME280;3286;49.858;8.768;2023-06-26T00:51:33;99072.06;;;21.27;46.22
6506;BME280;3286;49.858;8.768;2023-06-26T00:53:59;99074.34;;;21.61;45.64
6506;BME280;3286;49.858;8.768;2023-06-26T00:56:27;99070.97;;;20.91;47.55
6506;BME280;3286;49.858;8.768;2023-06-26T00:58:54;99063.16;;;21.46;46.13
6506;BME280;3286;49.858;8.768;2023-06-26T01:01:20;99064.34;;;21.50;45.47
6506;BME280;3286;49.858;8.768;2023-06-26T01:03:51;99065.38;;;21.30;46.30
6506;BME280;3286;49.858;8.768;2023-06-26T01:06:22;99058.59;;;21.09;46.71
6506;BME280;3286;49.858;8.768;2023-06-26T01:08:50;99060.91;;;21.24;46.56
6506;BME280;3286;49.858;8.768;2023-06-26T01:11:17;99054.78;;;20.98;47.62
6506;BME280;3286;49.858;8.768;2023-06-26T01:13:45;99058.69;;;21.21;46.63
6506;BME280;3286;49.858;8.768;2023-06-26T01:16:12;99048.38;;;21.18;46.99
6506;BME280;3286;49.858;8.768;2023-06-26T01:18:41;99056.25;;;20.94;47.28
6506;BME280;3286;49.858;8.768;2023-06-26T01:21:11;99052.63;;;21.07;46.88
6506;BME280;3286;49.858;8.768;2023-06-26T01:23:54;99051.69;;;21.01;47.08
6506;BME280;3286;49.858;8.768;2023-06-26T01:26:27;99042.56;;;21.21;47.04
6506;BME280;3286;49.858;8.768;2023-06-26T01:28:57;99043.75;;;21.06;47.68
6506;BME280;3286;49.858;8.768;2023-06-26T01:31:26;99045.25;;;21.21;47.62
6506;BME280;3286;49.858;8.768;2023-06-26T01:33:53;99043.09;;;21.30;47.38
6506;BME280;3286;49.858;8.768;2023-06-26T01:36:20;99047.00;;;20.90;46.96
6506;BME280;3286;49.858;8.768;2023-06-26T01:38:46;99040.63;;;21.09;46.60
6506;BME280;3286;49.858;8.768;2023-06-26T01:41:13;99038.44;;;20.81;47.18
6506;BME280;3286;49.858;8.768;2023-06-26T01:43:54;99033.47;;;21.03;47.03
6506;BME280;3286;49.858;8.768;2023-06-26T01:46:36;99031.94;;;20.45;48.65
6506;BME280;3286;49.858;8.768;2023-06-26T01:49:09;99033.06;;;20.55;48.62
6506;BME280;3286;49.858;8.768;2023-06-26T01:51:41;99037.91;;;20.91;47.63
6506;BME280;3286;49.858;8.768;2023-06-26T01:54:13;99033.41;;;20.66;48.13
6506;BME280;3286;49.858;8.768;2023-06-26T01:56:40;99041.22;;;20.67;47.91
6506;BME280;3286;49.858;8.768;2023-06-26T01:59:11;99042.16;;;20.80;46.84
6506;BME280;3286;49.858;8.768;2023-06-26T02:01:39;99045.38;;;20.63;47.66
6506;BME280;3286;49.858;8.768;2023-06-26T02:04:06;99044.56;;;20.88;46.24
6506;BME280;3286;49.858;8.768;2023-06-26T02:06:33;99043.19;;;20.79;46.70
6506;BME280;3286;49.858;8.768;2023-06-26T02:08:59;99038.94;;;20.46;47.74
6506;BME280;3286;49.858;8.768;2023-06-26T02:11:26;99034.50;;;20.58;47.26
6506;BME280;3286;49.858;8.768;2023-06-26T02:13:53;99040.34;;;20.23;47.90
6506;BME280;3286;49.858;8.768;2023-06-26T02:16:21;99035.41;;;20.70;46.79
6506;BME280;3286;49.858;8.768;2023-06-26T02:18:48;99034.34;;;20.72;46.15
6506;BME280;3286;49.858;8.768;2023-06-26T02:21:15;99038.69;;;20.47;47.01
6506;BME280;3286;49.858;8.768;2023-06-26T02:23:41;99032.13;;;20.68;46.24
6506;BME280;3286;49.858;8.768;2023-06-26T02:26:08;99032.88;;;20.76;46.25
6506;BME280;3286;49.858;8.768;2023-06-26T02:28:35;99041.22;;;20.67;46.53
6506;BME280;3286;49.858;8.768;2023-06-26T02:31:01;99037.44;;;20.50;46.78
6506;BME280;3286;49.858;8.768;2023-06-26T02:33:29;99037.91;;;20.47;47.03
6506;BME280;3286;49.858;8.768;2023-06-26T02:35:56;99028.25;;;20.39;47.13
6506;BME280;3286;49.858;8.768;2023-06-26T02:38:22;99030.00;;;20.96;45.81
6506;BME280;3286;49.858;8.768;2023-06-26T02:40:49;99030.53;;;20.86;46.08
6506;BME280;3286;49.858;8.768;2023-06-26T02:43:15;99027.34;;;20.70;46.07
6506;BME280;3286;49.858;8.768;2023-06-26T02:45:42;99032.63;;;20.84;45.64
6506;BME280;3286;49.858;8.768;2023-06-26T02:48:09;99033.00;;;20.62;46.16
6506;BME280;3286;49.858;8.768;2023-06-26T02:50:37;99025.09;;;20.67;45.97
6506;BME280;3286;49.858;8.768;2023-06-26T02:53:03;99028.19;;;20.71;45.92
6506;BME280;3286;49.858;8.768;2023-06-26T02:55:30;99030.00;;;20.26;46.83
6506;BME280;3286;49.858;8.768;2023-06-26T02:57:56;99021.84;;;20.40;46.89
6506;BME280;3286;49.858;8.768;2023-06-26T03:00:23;99027.22;;;20.40;46.94
6506;BME280;3286;49.858;8.768;2023-06-26T03:02:50;99025.72;;;20.19;47.28
6506;BME280;3286;49.858;8.768;2023-06-26T03:05:17;99020.72;;;19.51;49.32
6506;BME280;3286;49.858;8.768;2023-06-26T03:07:45;99029.25;;;19.80;48.69
6506;BME280;3286;49.858;8.768;2023-06-26T03:10:11;99029.78;;;19.96;48.16
6506;BME280;3286;49.858;8.768;2023-06-26T03:12:38;99025.56;;;20.14;47.27
6506;BME280;3286;49.858;8.768;2023-06-26T03:15:06;99023.25;;;20.17;46.93
6506;BME280;3286;49.858;8.768;2023-06-26T03:17:32;99028.38;;;19.93;47.38
6506;BME280;3286;49.858;8.768;2023-06-26T03:19:59;99024.50;;;20.15;47.39
6506;BME280;3286;49.858;8.768;2023-06-26T03:22:26;99026.81;;;19.72;48.29
6506;BME280;3286;49.858;8.768;2023-06-26T03:24:54;99033.13;;;19.91;48.02
6506;BME280;3286;49.858;8.768;2023-06-26T03:27:21;99029.91;;;20.08;47.24
6506;BME280;3286;49.858;8.768;2023-06-26T03:29:47;99036.16;;;20.02;47.28
6506;BME280;3286;49.858;8.768;2023-06-26T03:32:14;99023.13;;;19.66;48.51
6506;BME280;3286;49.858;8.768;2023-06-26T03:34:41;99022.78;;;19.95;47.83
6506;BME280;3286;49.858;8.768;2023-06-26T03:37:07;99031.53;;;20.16;47.24
6506;BME280;3286;49.858;8.768;2023-06-26T03:39:34;99031.75;;;20.39;46.86
6506;BME280;3286;49.858;8.768;2023-06-26T03:42:02;99023.94;;;20.38;46.84
6506;BME280;3286;49.858;8.768;2023-06-26T03:44:29;99026.91;;;19.97;47.69
6506;BME280;3286;49.858;8.768;2023-06-26T03:46:55;99030.91;;;20.14;47.40
6506;BME280;3286;49.858;8.768;2023-06-26T03:49:22;99032.41;;;20.35;47.23
6506;BME280;3286;49.858;8.768;2023-06-26T03:51:48;99027.56;;;20.18;47.44
6506;BME280;3286;49.858;8.768;2023-06-26T03:54:15;99023.63;;;20.21;47.54
6506;BME280;3286;49.858;8.768;2023-06-26T03:56:42;99029.38;;;19.99;48.05
6506;BME280;3286;49.858;8.768;2023-06-26T03:59:10;99031.88;;;19.87;48.62
6506;BME280;3286;49.858;8.768;2023-06-26T04:01:37;99026.41;;;19.68;49.16
6506;BME280;3286;49.858;8.768;2023-06-26T04:04:04;99032.84;;;19.61;49.49
6506;BME280;3286;49.858;8.768;2023-06-26T04:06:31;99033.03;;;20.05;48.34
6506;BME280;3286;49.858;8.768;2023-06-26T04:08:58;99025.59;;;20.07;48.33
6506;BME280;3286;49.858;8.768;2023-06-26T04:11:25;99032.06;;;19.99;48.78
6506;BME280;3286;49.858;8.768;2023-06-26T04:13:52;99045.38;;;20.12;48.63
6506;BME280;3286;49.858;8.768;2023-06-26T04:16:21;99036.38;;;20.00;48.95
6506;BME280;3286;49.858;8.768;2023-06-26T04:18:50;99039.09;;;19.93;49.58
6506;BME280;3286;49.858;8.768;2023-06-26T04:21:17;99039.25;;;20.56;47.95
6506;BME280;3286;49.858;8.768;2023-06-26T04:23:45;99044.28;;;20.20;48.98
6506;BME280;3286;49.858;8.768;2023-06-26T04:26:12;99051.56;;;20.38;48.54
6506;BME280;3286;49.858;8.768;2023-06-26T04:28:40;99049.59;;;20.27;49.17
6506;BME280;3286;49.858;8.768;2023-06-26T04:31:08;99047.03;;;20.39;49.31
6506;BME280;3286;49.858;8.768;2023-06-26T04:33:37;99040.91;;;20.82;48.74
6506;BME280;3286;49.858;8.768;2023-06-26T04:36:05;99034.59;;;20.45;49.42
6506;BME280;3286;49.858;8.768;2023-06-26T04:38:32;99036.53;;;20.63;48.93
6506;BME280;3286;49.858;8.768;2023-06-26T04:40:59;99037.94;;;20.65;48.76
6506;BME280;3286;49.858;8.768;2023-06-26T04:43:26;99030.78;;;20.78;49.48
6506;BME280;3286;49.858;8.768;2023-06-26T04:45:53;99033.00;;;20.62;50.04
6506;BME280;3286;49.858;8.768;2023-06-26T04:48:20;99038.97;;;20.64;49.69
6506;BME280;3286;49.858;8.768;2023-06-26T04:50:48;99038.91;;;20.71;49.94
6506;BME280;3286;49.858;8.768;2023-06-26T04:53:19;99038.66;;;20.98;49.03
6506;BME280;3286;49.858;8.768;2023-06-26T04:55:46;99047.47;;;20.87;48.98
6506;BME280;3286;49.858;8.768;2023-06-26T04:58:13;99033.84;;;20.88;49.21
6506;BME280;3286;49.858;8.768;2023-06-26T05:00:39;99039.34;;;20.93;49.43
6506;BME280;3286;49.858;8.768;2023-06-26T05:03:08;99033.75;;;21.13;49.25
6506;BME280;3286;49.858;8.768;2023-06-26T05:05:34;99031.13;;;21.44;48.48
6506;BME280;3286;49.858;8.768;2023-06-26T05:08:14;99035.38;;;21.70;48.29
6506;BME280;3286;49.858;8.768;2023-06-26T05:10:41;99033.81;;;21.44;48.91
6506;BME280;3286;49.858;8.768;2023-06-26T05:13:08;99034.72;;;21.38;49.42
6506;BME280;3286;49.858;8.768;2023-06-26T05:15:35;99032.91;;;21.69;48.96
6506;BME280;3286;49.858;8.768;2023-06-26T05:18:02;99036.06;;;21.66;48.24
6506;BME280;3286;49.858;8.768;2023-06-26T05:20:28;99034.75;;;21.87;48.45
6506;BME280;3286;49.858;8.768;2023-06-26T05:22:55;99036.97;;;21.90;47.92
6506;BME280;3286;49.858;8.768;2023-06-26T05:25:24;99035.63;;;22.11;48.09
6506;BME280;3286;49.858;8.768;2023-06-26T05:27:52;99036.94;;;22.21;47.98
6506;BME280;3286;49.858;8.768;2023-06-26T05:30:20;99040.03;;;22.48;47.56
6506;BME280;3286;49.858;8.768;2023-06-26T05:32:47;99041.91;;;22.48;48.19
6506;BME280;3286;49.858;8.768;2023-06-26T05:35:14;99036.19;;;22.56;48.19
6506;BME280;3286;49.858;8.768;2023-06-26T05:37:42;99038.63;;;22.57;48.10
6506;BME280;3286;49.858;8.768;2023-06-26T05:40:10;99028.34;;;22.78;47.90
6506;BME280;3286;49.858;8.768;2023-06-26T05:42:38;99030.56;;;22.57;49.74
6506;BME280;3286;49.858;8.768;2023-06-26T05:45:06;99032.28;;;22.40;50.15
6506;BME280;3286;49.858;8.768;2023-06-26T05:47:33;99027.72;;;23.00;47.01
6506;BME280;3286;49.858;8.768;2023-06-26T05:50:00;99026.81;;;22.94;48.15
6506;BME280;3286;49.858;8.768;2023-06-26T05:52:28;99029.03;;;22.97;48.38
6506;BME280;3286;49.858;8.768;2023-06-26T05:54:55;99027.81;;;23.29;46.01
6506;BME280;3286;49.858;8.768;2023-06-26T05:57:24;99026.78;;;23.59;46.23
6506;BME280;3286;49.858;8.768;2023-06-26T05:59:54;99023.94;;;23.95;45.93
6506;BME280;3286;49.858;8.768;2023-06-26T06:02:21;99031.66;;;24.03;46.02
6506;BME280;3286;49.858;8.768;2023-06-26T06:04:48;99033.16;;;24.28;45.60
6506;BME280;3286;49.858;8.768;2023-06-26T06:07:14;99029.22;;;24.36;43.43
6506;BME280;3286;49.858;8.768;2023-06-26T06:09:41;99024.47;;;24.26;44.39
6506;BME280;3286;49.858;8.768;2023-06-26T06:12:08;99030.38;;;24.40;44.74
6506;BME280;3286;49.858;8.768;2023-06-26T06:14:35;99040.41;;;24.79;43.97
6506;BME280;3286;49.858;8.768;2023-06-26T06:17:03;99035.88;;;25.01;43.95
6506;BME280;3286;49.858;8.768;2023-06-26T06:19:30;99031.47;;;24.95;44.00
6506;BME280;3286;49.858;8.768;2023-06-26T06:21:56;99029.19;;;24.87;44.34
6506;BME280;3286;49.858;8.768;2023-06-26T06:24:23;99031.09;;;25.09;42.73
6506;BME280;3286;49.858;8.768;2023-06-26T06:26:50;99026.34;;;25.16;42.22
6506;BME280;3286;49.858;8.768;2023-06-26T06:29:16;99023.16;;;25.69;41.60
6506;BME280;3286;49.858;8.768;2023-06-26T06:31:44;99020.91;;;25.60;42.39
6506;BME280;3286;49.858;8.768;2023-06-26T06:34:13;99025.38;;;25.72;42.13
6506;BME280;3286;49.858;8.768;2023-06-26T06:36:39;99032.06;;;26.19;40.94
6506;BME280;3286;49.858;8.768;2023-06-26T06:39:08;99025.69;;;26.08;40.24
6506;BME280;3286;49.858;8.768;2023-06-26T06:41:35;99021.63;;;26.06;40.91
6506;BME280;3286;49.858;8.768;2023-06-26T06:44:02;99027.25;;;26.26;39.51
6506;BME280;3286;49.858;8.768;2023-06-26T06:46:29;99024.91;;;26.40;39.00
6506;BME280;3286;49.858;8.768;2023-06-26T06:48:56;99019.75;;;26.82;38.11
6506;BME280;3286;49.858;8.768;2023-06-26T06:51:24;99022.22;;;26.83;38.45
6506;BME280;3286;49.858;8.768;2023-06-26T06:53:50;99025.34;;;26.65;39.13
6506;BME280;3286;49.858;8.768;2023-06-26T06:56:17;99012.88;;;27.01;39.28
6506;BME280;3286;49.858;8.768;2023-06-26T06:58:44;99009.13;;;27.23;37.41
6506;BME280;3286;49.858;8.768;2023-06-26T07:01:11;99006.75;;;27.37;37.78
6506;BME280;3286;49.858;8.768;2023-06-26T07:03:38;99008.47;;;27.59;37.81
6506;BME280;3286;49.858;8.768;2023-06-26T07:06:05;99003.91;;;27.75;36.94
6506;BME280;3286;49.858;8.768;2023-06-26T07:08:33;99000.91;;;27.76;37.49
6506;BME280;3286;49.858;8.768;2023-06-26T07:11:00;99003.63;;;27.82;37.57
6506;BME280;3286;49.858;8.768;2023-06-26T07:13:28;98999.03;;;27.82;37.62
6506;BME280;3286;49.858;8.768;2023-06-26T07:15:55;99001.22;;;28.37;37.13
6506;BME280;3286;49.858;8.768;2023-06-26T07:18:21;98999.25;;;28.63;36.93
6506;BME280;3286;49.858;8.768;2023-06-26T07:20:48;98998.47;;;28.53;36.13
6506;BME280;3286;49.858;8.768;2023-06-26T07:23:15;98994.13;;;28.62;36.56
6506;BME280;3286;49.858;8.768;2023-06-26T07:25:43;98995.16;;;28.87;36.28
6506;BME280;3286;49.858;8.768;2023-06-26T07:28:10;98992.91;;;29.10;35.74
6506;BME280;3286;49.858;8.768;2023-06-26T07:30:37;98991.22;;;29.19;35.40
6506;BME280;3286;49.858;8.768;2023-06-26T07:33:03;98983.34;;;29.12;35.63
6506;BME280;3286;49.858;8.768;2023-06-26T07:35:30;98980.09;;;29.66;35.62
6506;BME280;3286;49.858;8.768;2023-06-26T07:37:57;98979.63;;;29.93;34.13
6506;BME280;3286;49.858;8.768;2023-06-26T07:40:23;98988.13;;;29.86;34.83
6506;BME280;3286;49.858;8.768;2023-06-26T07:42:51;98981.88;;;29.86;35.22
6506;BME280;3286;49.858;8.768;2023-06-26T07:45:19;98990.91;;;30.16;35.21
6506;BME280;3286;49.858;8.768;2023-06-26T07:47:45;98988.97;;;30.21;34.70
6506;BME280;3286;49.858;8.768;2023-06-26T07:50:12;98993.28;;;29.88;33.75
6506;BME280;3286;49.858;8.768;2023-06-26T07:52:44;99001.41;;;28.92;32.39
6506;BME280;3286;49.858;8.768;2023-06-26T07:55:11;99001.19;;;28.58;32.45
6506;BME280;3286;49.858;8.768;2023-06-26T07:57:37;99004.16;;;28.61;31.91
6506;BME280;3286;49.858;8.768;2023-06-26T08:00:07;99003.31;;;28.82;31.82
6506;BME280;3286;49.858;8.768;2023-06-26T08:02:34;98995.00;;;29.78;30.30
6506;BME280;3286;49.858;8.768;2023-06-26T08:05:00;98994.56;;;28.95;30.85
6506;BME280;3286;49.858;8.768;2023-06-26T08:07:27;99003.31;;;29.53;30.04
6506;BME280;3286;49.858;8.768;2023-06-26T08:09:54;99010.66;;;28.91;28.25
6506;BME280;3286;49.858;8.768;2023-06-26T08:12:20;99008.28;;;28.28;30.51
6506;BME280;3286;49.858;8.768;2023-06-26T08:14:47;99001.88;;;29.66;28.75
6506;BME280;3286;49.858;8.768;2023-06-26T08:17:15;99003.88;;;29.49;29.43
6506;BME280;3286;49.858;8.768;2023-06-26T08:19:42;98999.91;;;30.75;27.93
6506;BME280;3286;49.858;8.768;2023-06-26T08:22:08;99002.38;;;29.23;29.43
6506;BME280;3286;49.858;8.768;2023-06-26T08:24:35;99006.03;;;28.87;30.66
6506;BME280;3286;49.858;8.768;2023-06-26T08:27:02;99003.38;;;28.40;32.05
6506;BME280;3286;49.858;8.768;2023-06-26T08:29:29;99013.44;;;28.19;32.09
6506;BME280;3286;49.858;8.768;2023-06-26T08:31:56;99014.81;;;28.22;32.36
6506;BME280;3286;49.858;8.768;2023-06-26T08:34:24;99012.63;;;29.36;30.39
6506;BME280;3286;49.858;8.768;2023-06-26T08:36:51;99013.81;;;29.19;30.23
6506;BME280;3286;49.858;8.768;2023-06-26T08:39:18;99015.06;;;28.30;32.57
6506;BME280;3286;49.858;8.768;2023-06-26T08:41:45;99019.94;;;28.80;31.89
6506;BME280;3286;49.858;8.768;2023-06-26T08:44:11;99015.31;;;28.55;31.64
6506;BME280;3286;49.858;8.768;2023-06-26T08:46:38;99014.38;;;29.06;31.14
6506;BME280;3286;49.858;8.768;2023-06-26T08:49:12;99023.97;;;28.88;32.22
6506;BME280;3286;49.858;8.768;2023-06-26T08:51:45;99026.88;;;29.07;31.36
6506;BME280;3286;49.858;8.768;2023-06-26T08:54:17;99026.19;;;28.65;32.53
6506;BME280;3286;49.858;8.768;2023-06-26T08:56:49;99016.00;;;29.17;31.98
6506;BME280;3286;49.858;8.768;2023-06-26T08:59:16;99020.34;;;30.14;30.86
6506;BME280;3286;49.858;8.768;2023-06-26T09:01:43;99021.72;;;30.11;29.76
6506;BME280;3286;49.858;8.768;2023-06-26T09:04:10;99036.25;;;29.96;31.06
6506;BME280;3286;49.858;8.768;2023-06-26T09:06:37;99025.06;;;30.03;30.33
6506;BME280;3286;49.858;8.768;2023-06-26T09:09:06;99018.06;;;30.26;29.84
6506;BME280;3286;49.858;8.768;2023-06-26T09:11:32;99022.19;;;30.53;29.76
6506;BME280;3286;49.858;8.768;2023-06-26T09:13:59;99027.75;;;30.97;28.67
6506;BME280;3286;49.858;8.768;2023-06-26T09:16:26;99016.13;;;30.61;29.49
6506;BME280;3286;49.858;8.768;2023-06-26T09:18:53;99019.25;;;30.44;29.47
6506;BME280;3286;49.858;8.768;2023-06-26T09:21:21;99026.44;;;30.64;29.94
6506;BME280;3286;49.858;8.768;2023-06-26T09:23:49;99025.47;;;31.04;29.13
6506;BME280;3286;49.858;8.768;2023-06-26T09:26:17;99018.78;;;31.97;28.48
6506;BME280;3286;49.858;8.768;2023-06-26T09:28:44;99012.75;;;31.62;28.79
6506;BME280;3286;49.858;8.768;2023-06-26T09:31:11;99020.16;;;30.93;28.67
6506;BME280;3286;49.858;8.768;2023-06-26T09:33:38;99017.22;;;31.33;29.56
6506;BME280;3286;49.858;8.768;2023-06-26T09:36:07;99028.84;;;31.83;28.46
6506;BME280;3286;49.858;8.768;2023-06-26T09:38:35;99027.28;;;31.14;27.99
6506;BME280;3286;49.858;8.768;2023-06-26T09:41:03;99014.34;;;32.01;27.64
6506;BME280;3286;49.858;8.768;2023-06-26T09:43:32;99017.56;;;31.70;28.28
6506;BME280;3286;49.858;8.768;2023-06-26T09:46:00;99020.16;;;30.69;29.25
6506;BME280;3286;49.858;8.768;2023-06-26T09:48:27;99018.66;;;31.50;27.72
6506;BME280;3286;49.858;8.768;2023-06-26T09:50:55;99018.28;;;31.76;26.91
6506;BME280;3286;49.858;8.768;2023-06-26T09:53:21;99019.06;;;32.15;26.31
6506;BME280;3286;49.858;8.768;2023-06-26T09:55:48;99016.66;;;31.56;27.74
6506;BME280;3286;49.858;8.768;2023-06-26T09:58:15;99006.63;;;31.89;27.47
6506;BME280;3286;49.858;8.768;2023-06-26T10:00:44;99025.13;;;31.35;27.89
6506;BME280;3286;49.858;8.768;2023-06-26T10:03:11;99027.63;;;31.07;28.89
6506;BME280;3286;49.858;8.768;2023-06-26T10:05:38;99026.41;;;31.62;28.38
6506;BME280;3286;49.858;8.768;2023-06-26T10:08:05;99031.72;;;31.53;27.65
6506;BME280;3286;49.858;8.768;2023-06-26T10:10:33;99016.94;;;32.12;26.45
6506;BME280;3286;49.858;8.768;2023-06-26T10:13:05;99028.13;;;31.09;28.26
6506;BME280;3286;49.858;8.768;2023-06-26T10:15:35;99025.03;;;30.72;28.94
6506;BME280;3286;49.858;8.768;2023-06-26T10:18:04;99024.03;;;31.36;29.19
6506;BME280;3286;49.858;8.768;2023-06-26T10:20:32;99019.88;;;32.15;28.10
6506;BME280;3286;49.858;8.768;2023-06-26T10:23:00;99020.25;;;32.42;28.10
6506;BME280;3286;49.858;8.768;2023-06-26T10:25:29;99024.78;;;30.93;29.44
6506;BME280;3286;49.858;8.768;2023-06-26T10:28:00;99025.50;;;30.50;29.88
6506;BME280;3286;49.858;8.768;2023-06-26T10:30:29;99040.91;;;30.30;30.83
6506;BME280;3286;49.858;8.768;2023-06-26T10:32:59;99041.63;;;29.61;30.98
6506;BME280;3286;49.858;8.768;2023-06-26T10:35:27;99040.56;;;29.57;31.37
6506;BME280;3286;49.858;8.768;2023-06-26T10:38:00;99037.13;;;29.36;32.07
6506;BME280;3286;49.858;8.768;2023-06-26T10:40:40;99047.13;;;29.56;31.20
6506;BME280;3286;49.858;8.768;2023-06-26T10:43:11;99037.94;;;29.87;30.94
6506;BME280;3286;49.858;8.768;2023-06-26T10:45:44;99034.66;;;30.30;30.73
6506;BME280;3286;49.858;8.768;2023-06-26T10:48:13;99039.81;;;31.15;30.37
6506;BME280;3286;49.858;8.768;2023-06-26T10:50:42;99030.00;;;30.65;30.00
6506;BME280;3286;49.858;8.768;2023-06-26T10:53:15;99038.56;;;31.70;29.94
6506;BME280;3286;49.858;8.768;2023-06-26T10:55:48;99028.19;;;32.43;29.03
6506;BME280;3286;49.858;8.768;2023-06-26T10:58:27;99041.81;;;32.10;30.13
6506;BME280;3286;49.858;8.768;2023-06-26T11:01:19;99039.31;;;32.14;28.46
6506;BME280;3286;49.858;8.768;2023-06-26T11:03:49;99040.22;;;31.90;29.06
6506;BME280;3286;49.858;8.768;2023-06-26T11:06:20;99039.25;;;32.52;28.15
6506;BME280;3286;49.858;8.768;2023-06-26T11:08:48;99037.25;;;31.67;28.68
6506;BME280;3286;49.858;8.768;2023-06-26T11:11:15;99032.22;;;32.32;28.48
6506;BME280;3286;49.858;8.768;2023-06-26T11:13:44;99028.41;;;32.75;27.84
6506;BME280;3286;49.858;8.768;2023-06-26T11:16:12;99029.34;;;32.84;27.87
6506;BME280;3286;49.858;8.768;2023-06-26T11:18:40;99048.09;;;31.72;28.89
6506;BME280;3286;49.858;8.768;2023-06-26T11:21:07;99038.38;;;32.04;28.48
6506;BME280;3286;49.858;8.768;2023-06-26T11:23:37;99031.09;;;32.94;27.61
6506;BME280;3286;49.858;8.768;2023-06-26T11:26:14;99048.63;;;32.13;27.57
6506;BME280;3286;49.858;8.768;2023-06-26T11:28:46;99044.59;;;31.47;29.09
6506;BME280;3286;49.858;8.768;2023-06-26T11:31:27;99036.66;;;33.17;27.57
6506;BME280;3286;49.858;8.768;2023-06-26T11:33:55;99039.66;;;32.59;27.98
6506;BME280;3286;49.858;8.768;2023-06-26T11:36:23;99039.47;;;32.84;26.85
6506;BME280;3286;49.858;8.768;2023-06-26T11:38:56;99032.09;;;33.26;27.30
6506;BME280;3286;49.858;8.768;2023-06-26T11:41:23;99040.72;;;31.92;28.60
6506;BME280;3286;49.858;8.768;2023-06-26T11:43:51;99051.78;;;32.53;27.50
6506;BME280;3286;49.858;8.768;2023-06-26T11:46:19;99046.84;;;32.69;27.80
6506;BME280;3286;49.858;8.768;2023-06-26T11:48:46;99041.63;;;32.06;28.33
6506;BME280;3286;49.858;8.768;2023-06-26T11:51:13;99028.19;;;31.91;28.76
6506;BME280;3286;49.858;8.768;2023-06-26T11:53:41;99032.84;;;31.90;28.86
6506;BME280;3286;49.858;8.768;2023-06-26T11:56:10;99046.03;;;31.45;29.47
6506;BME280;3286;49.858;8.768;2023-06-26T11:58:55;99034.34;;;32.16;27.49
6506;BME280;3286;49.858;8.768;2023-06-26T12:01:22;99035.88;;;32.41;28.10
6506;BME280;3286;49.858;8.768;2023-06-26T12:03:50;99025.31;;;32.96;28.22
6506;BME280;3286;49.858;8.768;2023-06-26T12:06:17;99041.56;;;31.92;27.22
6506;BME280;3286;49.858;8.768;2023-06-26T12:08:44;99040.66;;;32.30;28.07
6506;BME280;3286;49.858;8.768;2023-06-26T12:11:13;99038.06;;;31.68;28.16
6506;BME280;3286;49.858;8.768;2023-06-26T12:13:40;99050.50;;;31.55;27.83
6506;BME280;3286;49.858;8.768;2023-06-26T12:16:06;99044.94;;;32.03;26.51
6506;BME280;3286;49.858;8.768;2023-06-26T12:18:34;99050.28;;;32.28;26.12
6506;BME280;3286;49.858;8.768;2023-06-26T12:21:01;99042.09;;;31.07;27.49
6506;BME280;3286;49.858;8.768;2023-06-26T12:23:32;99033.81;;;31.81;26.98
6506;BME280;3286;49.858;8.768;2023-06-26T12:29:03;99030.88;;;32.10;26.44
6506;BME280;3286;49.858;8.768;2023-06-26T12:31:31;99029.69;;;31.40;26.26
6506;BME280;3286;49.858;8.768;2023-06-26T12:33:58;99039.56;;;30.62;27.03
6506;BME280;3286;49.858;8.768;2023-06-26T12:36:25;99045.84;;;30.63;27.51
6506;BME280;3286;49.858;8.768;2023-06-26T12:38:53;99037.03;;;30.71;28.06
6506;BME280;3286;49.858;8.768;2023-06-26T12:41:24;99044.00;;;30.18;28.18
6506;BME280;3286;49.858;8.768;2023-06-26T12:43:55;99047.22;;;30.26;27.63
6506;BME280;3286;49.858;8.768;2023-06-26T12:46:34;99044.66;;;31.23;27.47
6506;BME280;3286;49.858;8.768;2023-06-26T12:49:01;99027.25;;;32.34;26.03
6506;BME280;3286;49.858;8.768;2023-06-26T12:51:28;99032.81;;;32.43;25.76
6506;BME280;3286;49.858;8.768;2023-06-26T12:53:54;99037.13;;;31.77;26.03
6506;BME280;3286;49.858;8.768;2023-06-26T12:56:21;99020.25;;;33.17;24.09
6506;BME280;3286;49.858;8.768;2023-06-26T12:58:48;99018.88;;;32.44;25.66
6506;BME280;3286;49.858;8.768;2023-06-26T13:01:14;99023.81;;;32.89;24.69
6506;BME280;3286;49.858;8.768;2023-06-26T13:03:43;99030.09;;;32.43;25.22
6506;BME280;3286;49.858;8.768;2023-06-26T13:06:10;99024.13;;;31.69;25.17
6506;BME280;3286;49.858;8.768;2023-06-26T13:08:37;99028.03;;;30.71;25.77
6506;BME280;3286;49.858;8.768;2023-06-26T13:11:04;99030.25;;;31.42;26.03
6506;BME280;3286;49.858;8.768;2023-06-26T13:13:31;99038.94;;;31.63;25.78
6506;BME280;3286;49.858;8.768;2023-06-26T13:15:57;99020.38;;;32.50;24.35
6506;BME280;3286;49.858;8.768;2023-06-26T13:18:24;99014.63;;;33.36;24.14
6506;BME280;3286;49.858;8.768;2023-06-26T13:20:52;99028.13;;;32.76;24.20
6506;BME280;3286;49.858;8.768;2023-06-26T13:23:19;99023.91;;;32.37;23.97
6506;BME280;3286;49.858;8.768;2023-06-26T13:25:45;99020.03;;;32.85;23.61
6506;BME280;3286;49.858;8.768;2023-06-26T13:28:12;99032.59;;;32.06;23.49